In Rescue
 
Open Full Screen Window  High Contrast Mode
Wind Gusting 00 knots
03
May 13, 2021 10:59 AM EDT
Weather Information
Wind Direction
  350 °
Wind Speed
  03 kt (3 mph)
Wind Gust
  00 kt (0 mph)
Altimeter
30.22 in
Visibility
10 SM
Temperature
17° C
63° F
Dewpoint
-05° C
23° F
Humidity
22%
Sky Condition
Clear
VFR

METAR KFSO 131459Z AUTO 35003KT 10SM CLR 17/M05 A3022 RMK AO2 T01681052

FAA Disclaimer: The data displayed is for advisory purposes only and is not to be used for flight planning or operations.